Time;durP1;ratioP1;P1;durP2;ratioP2;P2;SDS_P1;SDS_P2;PMS_P1;PMS_P2;Temp;Humidity;BMP_temperature;BMP_pressure;BME280_temperature;BME280_humidity;BME280_pressure;Samples;Min_cycle;Max_cycle;Signal;HPM_P1;HPM_P2
2022/11/29 00:01:14;;;;;;;158.52;42.75;;;8.30;99.90;;;;;;4990188;28;20054;-78
2022/11/29 00:03:40;;;;;;;198.80;49.23;;;8.30;99.90;;;;;;4978222;28;20557;-78
2022/11/29 00:06:18;;;;;;;170.77;44.13;;;8.40;99.90;;;;;;4987955;28;20313;-78
2022/11/29 00:08:44;;;;;;;172.73;46.88;;;8.40;99.90;;;;;;4989152;28;20096;-78
2022/11/29 00:11:12;;;;;;;168.90;41.78;;;8.30;99.90;;;;;;4989952;28;20045;-78
2022/11/29 00:13:38;;;;;;;166.25;40.65;;;8.30;99.90;;;;;;4989846;28;20049;-78
2022/11/29 00:16:07;;;;;;;180.63;45.15;;;8.30;99.90;;;;;;4990423;28;20057;-78
2022/11/29 00:18:33;;;;;;;140.07;41.88;;;8.30;99.90;;;;;;4990276;28;20530;-78
2022/11/29 00:20:59;;;;;;;136.43;41.40;;;8.30;99.90;;;;;;4985499;28;20049;-78
2022/11/29 00:23:25;;;;;;;200.95;46.53;;;8.30;99.90;;;;;;4987481;28;20080;-78
2022/11/29 00:25:51;;;;;;;150.90;41.42;;;8.30;99.90;;;;;;4972918;28;20129;-78
2022/11/29 00:28:17;;;;;;;151.82;40.67;;;8.30;99.90;;;;;;4990021;28;20088;-78
2022/11/29 00:30:43;;;;;;;177.52;44.25;;;8.30;99.90;;;;;;4990013;28;20050;-78
2022/11/29 00:33:08;;;;;;;164.80;41.20;;;8.30;99.90;;;;;;4979695;28;20081;-78
2022/11/29 00:35:34;;;;;;;158.25;44.78;;;8.30;99.90;;;;;;4989226;28;20060;-78
2022/11/29 00:37:59;;;;;;;184.55;46.10;;;8.30;99.90;;;;;;4988605;28;20050;-78
2022/11/29 00:40:25;;;;;;;151.30;44.65;;;8.30;99.90;;;;;;4989964;28;20048;-77
2022/11/29 00:42:50;;;;;;;167.02;40.63;;;8.30;99.90;;;;;;4986636;28;20042;-78
2022/11/29 00:45:16;;;;;;;159.85;40.20;;;8.30;99.90;;;;;;4989766;28;20437;-78
2022/11/29 00:47:42;;;;;;;167.80;42.67;;;8.30;99.90;;;;;;4974292;28;20108;-78
2022/11/29 00:50:08;;;;;;;162.88;43.75;;;8.30;99.90;;;;;;4988592;28;20054;-78
2022/11/29 00:52:34;;;;;;;179.73;42.97;;;8.30;99.90;;;;;;4989935;28;20058;-78
2022/11/29 00:54:59;;;;;;;181.32;44.20;;;8.30;99.90;;;;;;4989759;28;20136;-78
2022/11/29 00:57:25;;;;;;;168.45;44.78;;;8.30;99.90;;;;;;4990090;28;20042;-77
2022/11/29 00:59:50;;;;;;;187.55;46.47;;;8.30;99.90;;;;;;4987360;28;20069;-78
2022/11/29 01:02:16;;;;;;;174.93;44.58;;;8.30;99.90;;;;;;4990452;28;20049;-78
2022/11/29 01:04:42;;;;;;;195.95;47.95;;;8.30;99.90;;;;;;4986407;28;20057;-78
2022/11/29 01:07:07;;;;;;;194.38;46.67;;;8.30;99.90;;;;;;4989042;28;20041;-78
2022/11/29 01:09:33;;;;;;;177.93;47.40;;;8.30;99.90;;;;;;4990114;28;20046;-78
2022/11/29 01:11:58;;;;;;;206.60;50.25;;;8.30;99.90;;;;;;4989795;28;20046;-78
2022/11/29 01:14:24;;;;;;;153.70;41.97;;;8.30;99.90;;;;;;4988093;28;20848;-78
2022/11/29 01:16:50;;;;;;;177.43;44.70;;;8.30;99.90;;;;;;4988398;28;20056;-78
2022/11/29 01:19:15;;;;;;;214.73;49.33;;;8.30;99.90;;;;;;4989595;28;20053;-78
2022/11/29 01:21:41;;;;;;;219.88;50.85;;;8.30;99.90;;;;;;4991973;28;20495;-78
2022/11/29 01:24:06;;;;;;;190.90;43.92;;;8.30;99.90;;;;;;4993031;28;20053;-77
2022/11/29 01:26:32;;;;;;;182.20;44.03;;;8.30;99.90;;;;;;4993728;28;20042;-78
2022/11/29 01:28:58;;;;;;;207.35;44.92;;;8.20;99.90;;;;;;4992832;28;20578;-78
2022/11/29 01:31:29;;;;;;;151.98;42.30;;;8.30;99.90;;;;;;4989717;28;20053;-78
2022/11/29 01:33:57;;;;;;;166.88;43.88;;;8.20;99.90;;;;;;4991945;28;20050;-78
2022/11/29 01:36:23;;;;;;;162.90;43.50;;;8.20;99.90;;;;;;4992575;28;20553;-78
2022/11/29 01:38:49;;;;;;;154.95;42.97;;;8.20;99.90;;;;;;4992501;28;20041;-78
2022/11/29 01:41:22;;;;;;;204.02;47.72;;;8.20;99.90;;;;;;4993232;28;20076;-78
2022/11/29 01:44:12;;;;;;;218.80;46.40;;;8.20;99.90;;;;;;5009637;28;20076;-78
2022/11/29 01:46:41;;;;;;;161.55;47.03;;;8.20;99.90;;;;;;4990482;28;20069;-77
2022/11/29 01:49:21;;;;;;;161.88;44.45;;;8.30;99.90;;;;;;4992327;28;20042;-78
2022/11/29 01:51:51;;;;;;;193.43;47.30;;;8.20;99.90;;;;;;4991576;28;20115;-78
2022/11/29 01:54:18;;;;;;;171.27;43.45;;;8.20;99.90;;;;;;4993194;28;20060;-78
2022/11/29 01:56:47;;;;;;;204.75;47.92;;;8.20;99.90;;;;;;4993237;28;20420;-78
2022/11/29 01:59:18;;;;;;;177.43;43.70;;;8.30;99.90;;;;;;4992541;28;20057;-78
2022/11/29 02:01:44;;;;;;;187.00;46.55;;;8.20;99.90;;;;;;4975752;28;20046;-78
2022/11/29 02:04:10;;;;;;;148.20;41.47;;;8.20;99.90;;;;;;4991955;28;20049;-78
2022/11/29 02:06:37;;;;;;;151.52;39.78;;;8.20;99.90;;;;;;4988190;28;20050;-78
2022/11/29 02:09:15;;;;;;;162.90;40.33;;;8.20;99.90;;;;;;4989626;28;20053;-78
2022/11/29 02:12:17;;;;;;;202.13;48.20;;;8.20;99.90;;;;;;5008722;28;20045;-78
2022/11/29 02:15:29;;;;;;;174.52;44.28;;;8.20;99.90;;;;;;4982968;28;20046;-78
2022/11/29 02:18:06;;;;;;;153.65;44.72;;;8.20;99.90;;;;;;4966991;28;20096;-78
2022/11/29 02:21:01;;;;;;;168.40;43.50;;;8.20;99.90;;;;;;4991551;28;20052;-78
2022/11/29 02:23:27;;;;;;;177.75;45.67;;;8.20;99.90;;;;;;4997218;28;20317;-78
2022/11/29 02:26:27;;;;;;;182.35;44.50;;;8.20;99.90;;;;;;4979083;28;20049;-77
2022/11/29 02:29:18;;;;;;;155.68;43.35;;;8.20;99.90;;;;;;5008149;28;20049;-77
2022/11/29 02:31:55;;;;;;;194.60;49.47;;;8.20;99.90;;;;;;4982248;28;20060;-78
2022/11/29 02:34:47;;;;;;;221.73;48.45;;;8.20;99.90;;;;;;4991312;28;20100;-78
2022/11/29 02:37:31;;;;;;;177.30;47.05;;;8.20;99.90;;;;;;4991759;28;20084;-78
2022/11/29 02:40:04;;;;;;;194.70;48.05;;;8.20;99.90;;;;;;4998827;28;20053;-77
2022/11/29 02:42:53;;;;;;;217.80;46.83;;;8.20;99.90;;;;;;4991595;28;20050;-77
2022/11/29 02:45:38;;;;;;;198.65;49.15;;;8.20;99.90;;;;;;4991758;28;20053;-78
2022/11/29 02:48:34;;;;;;;171.52;43.92;;;8.20;99.90;;;;;;4991394;28;20084;-77
2022/11/29 02:51:08;;;;;;;144.63;40.92;;;8.20;99.90;;;;;;5007092;28;20111;-77
2022/11/29 02:54:01;;;;;;;196.75;45.55;;;8.20;99.90;;;;;;4991020;28;20069;-78
2022/11/29 02:56:39;;;;;;;150.45;39.83;;;8.20;99.90;;;;;;4989920;28;20092;-77
2022/11/29 02:59:32;;;;;;;141.45;42.28;;;8.20;99.90;;;;;;4990761;28;20057;-78
2022/11/29 03:02:30;;;;;;;179.63;45.45;;;8.20;99.90;;;;;;4999347;28;20072;-77
2022/11/29 03:05:21;;;;;;;191.27;47.83;;;8.20;99.90;;;;;;4990948;28;20045;-78
2022/11/29 03:08:25;;;;;;;177.13;47.45;;;8.20;99.90;;;;;;4990889;28;21109;-78
2022/11/29 03:10:57;;;;;;;183.93;48.03;;;8.10;99.90;;;;;;4967535;28;20050;-78
2022/11/29 03:13:48;;;;;;;203.85;44.95;;;8.10;99.90;;;;;;4972882;28;20065;-78
2022/11/29 03:16:39;;;;;;;233.32;52.50;;;8.10;99.90;;;;;;4991338;28;20072;-78
2022/11/29 03:19:33;;;;;;;194.68;46.53;;;8.10;99.90;;;;;;4994513;28;20585;-77
2022/11/29 03:22:11;;;;;;;146.65;40.38;;;8.20;99.90;;;;;;4991051;28;20050;-77
2022/11/29 03:24:50;;;;;;;181.70;47.50;;;8.10;99.90;;;;;;4997841;28;20085;-77
2022/11/29 03:27:26;;;;;;;142.63;41.50;;;8.10;99.90;;;;;;4989765;28;20315;-77
2022/11/29 03:29:59;;;;;;;144.18;40.50;;;8.10;99.90;;;;;;4990276;28;20119;-77
2022/11/29 03:32:43;;;;;;;183.57;44.65;;;8.10;99.90;;;;;;4990735;28;20073;-77
2022/11/29 03:35:08;;;;;;;127.93;40.08;;;8.10;99.90;;;;;;4990257;28;20064;-77
2022/11/29 03:38:01;;;;;;;126.70;40.35;;;8.10;99.90;;;;;;4990712;28;20042;-78
2022/11/29 03:40:48;;;;;;;175.70;45.22;;;8.10;99.90;;;;;;4989534;28;20061;-77
2022/11/29 03:43:29;;;;;;;125.90;42.83;;;8.10;99.90;;;;;;4988705;28;20479;-78
2022/11/29 03:46:10;;;;;;;121.72;39.60;;;8.10;99.90;;;;;;4987296;28;20522;-78
2022/11/29 03:48:50;;;;;;;139.48;39.58;;;8.10;99.90;;;;;;4990834;28;20136;-77
2022/11/29 03:51:40;;;;;;;141.40;39.80;;;8.10;99.90;;;;;;4990554;28;20473;-78
2022/11/29 03:54:10;;;;;;;127.50;40.90;;;8.10;99.90;;;;;;5009255;28;20057;-77
2022/11/29 03:56:39;;;;;;;120.57;39.72;;;8.10;99.90;;;;;;4990498;28;20140;-78
2022/11/29 03:59:31;;;;;;;132.32;41.63;;;8.00;99.90;;;;;;4988011;28;20057;-78
2022/11/29 04:02:18;;;;;;;131.82;40.28;;;8.10;99.90;;;;;;4988974;28;20237;-77
2022/11/29 04:05:05;;;;;;;138.43;41.75;;;8.10;99.90;;;;;;4988896;28;20061;-77
2022/11/29 04:07:49;;;;;;;184.30;48.05;;;8.10;99.90;;;;;;4990312;28;20053;-77
2022/11/29 04:10:42;;;;;;;131.32;40.30;;;8.10;99.90;;;;;;4989246;28;20128;-77
2022/11/29 04:13:34;;;;;;;142.55;41.78;;;8.00;99.90;;;;;;4990286;28;20076;-77
2022/11/29 04:16:25;;;;;;;171.63;46.78;;;8.00;99.90;;;;;;4984279;28;20054;-75
2022/11/29 04:19:06;;;;;;;149.05;43.25;;;8.00;99.90;;;;;;5004186;28;20046;-75
2022/11/29 04:21:40;;;;;;;146.48;43.80;;;8.00;99.90;;;;;;4974366;28;20438;-75
2022/11/29 04:24:34;;;;;;;145.82;46.15;;;8.00;99.90;;;;;;4989177;28;20113;-75
2022/11/29 04:27:14;;;;;;;158.05;42.05;;;8.00;99.90;;;;;;4989769;28;20052;-75
2022/11/29 04:29:54;;;;;;;159.70;44.47;;;8.00;99.90;;;;;;4989747;28;20061;-75
2022/11/29 04:32:25;;;;;;;179.57;48.08;;;8.10;99.90;;;;;;4982674;28;20510;-76
2022/11/29 04:35:10;;;;;;;175.52;48.60;;;8.00;99.90;;;;;;4988123;28;20046;-75
2022/11/29 04:38:12;;;;;;;180.38;46.15;;;8.00;99.90;;;;;;4990191;28;20050;-76
2022/11/29 04:41:12;;;;;;;132.50;41.65;;;8.00;99.90;;;;;;4988893;28;20046;-76
2022/11/29 04:44:00;;;;;;;135.65;38.97;;;8.00;99.90;;;;;;4990003;28;20049;-77
2022/11/29 04:47:03;;;;;;;107.05;40.80;;;8.00;99.90;;;;;;4978655;28;20056;-77
2022/11/29 04:49:44;;;;;;;126.38;41.42;;;7.90;99.90;;;;;;4971954;28;20096;-76
2022/11/29 04:52:45;;;;;;;123.63;40.67;;;7.90;99.90;;;;;;4989500;28;20501;-77
2022/11/29 04:55:27;;;;;;;112.20;38.95;;;7.90;99.90;;;;;;4990166;28;20425;-76
2022/11/29 04:58:15;;;;;;;106.63;37.63;;;7.90;99.90;;;;;;4993017;28;20056;-76
2022/11/29 05:00:48;;;;;;;;;;;7.90;99.90;;;;;;4993916;28;20054;-76
2022/11/29 05:03:28;;;;;;;111.03;37.90;;;7.80;99.90;;;;;;4996722;28;19926;-76
2022/11/29 05:06:07;;;;;;;106.38;37.80;;;7.80;99.90;;;;;;4993373;28;20068;-77
2022/11/29 05:08:53;;;;;;;;;;;7.80;99.90;;;;;;4993383;28;20042;-77
2022/11/29 05:11:28;;;;;;;98.78;36.15;;;7.80;99.90;;;;;;4994094;28;20724;-77
2022/11/29 05:14:25;;;;;;;85.97;35.15;;;7.80;99.90;;;;;;4989120;28;20054;-77
2022/11/29 05:17:13;;;;;;;79.18;34.35;;;7.80;99.90;;;;;;4992872;28;20045;-76
2022/11/29 05:19:57;;;;;;;121.95;38.28;;;7.80;99.90;;;;;;4992692;28;20065;-77
2022/11/29 05:22:30;;;;;;;90.55;33.72;;;7.80;99.90;;;;;;4998802;28;20049;-77
2022/11/29 05:25:33;;;;;;;77.10;34.28;;;7.80;99.90;;;;;;4991995;28;20133;-77
2022/11/29 05:28:07;;;;;;;86.95;34.35;;;7.80;99.90;;;;;;4967721;28;20060;-76
2022/11/29 05:31:25;;;;;;;91.25;35.55;;;7.80;99.90;;;;;;4992522;28;20104;-77
2022/11/29 05:34:00;;;;;;;100.03;35.15;;;7.80;99.90;;;;;;4950061;28;20053;-76
2022/11/29 05:36:47;;;;;;;116.38;37.80;;;7.70;99.90;;;;;;4991789;28;20124;-77
2022/11/29 05:39:32;;;;;;;113.20;38.03;;;7.80;99.90;;;;;;5006237;28;20168;-77
2022/11/29 05:41:57;;;;;;;99.38;37.58;;;7.80;99.90;;;;;;4989796;28;20081;-76
2022/11/29 05:44:29;;;;;;;81.07;32.10;;;7.70;99.90;;;;;;4976545;28;20088;-77
2022/11/29 05:47:08;;;;;;;88.65;33.38;;;7.80;99.90;;;;;;4993595;28;20046;-76
2022/11/29 05:50:06;;;;;;;78.05;33.58;;;7.80;99.90;;;;;;5007157;28;20050;-76
2022/11/29 05:52:43;;;;;;;86.88;35.95;;;7.70;99.90;;;;;;4972527;28;20155;-76
2022/11/29 05:55:18;;;;;;;154.48;41.15;;;7.70;99.90;;;;;;5021621;28;20054;-76
2022/11/29 05:58:05;;;;;;;90.28;33.67;;;7.70;99.90;;;;;;4990166;28;20079;-76
2022/11/29 06:00:49;;;;;;;137.48;38.47;;;7.70;99.90;;;;;;4985854;28;20042;-76
2022/11/29 06:03:34;;;;;;;87.55;33.67;;;7.70;99.90;;;;;;4992539;28;20042;-76
2022/11/29 06:06:07;;;;;;;79.63;34.20;;;7.70;99.90;;;;;;4990766;28;20082;-76
2022/11/29 06:08:50;;;;;;;103.03;37.60;;;7.70;99.90;;;;;;4983877;28;20100;-75
2022/11/29 06:11:20;;;;;;;88.45;34.65;;;7.70;99.90;;;;;;4991750;28;20046;-76
2022/11/29 06:14:06;;;;;;;81.60;33.17;;;7.60;99.90;;;;;;4989789;28;20053;-76
2022/11/29 06:16:50;;;;;;;79.40;32.88;;;7.60;99.90;;;;;;4992922;28;20068;-76
2022/11/29 06:19:34;;;;;;;81.82;34.70;;;7.60;99.90;;;;;;4990312;28;20054;-76
2022/11/29 06:22:08;;;;;;;82.43;32.42;;;7.60;99.90;;;;;;4988849;28;20049;-76
2022/11/29 06:25:21;;;;;;;83.78;33.28;;;7.60;99.90;;;;;;4976107;28;20133;-75
2022/11/29 06:27:47;;;;;;;93.00;34.15;;;7.60;99.90;;;;;;4988924;28;20104;-75
2022/11/29 06:30:16;;;;;;;100.93;36.58;;;7.60;99.90;;;;;;4986567;28;20053;-76
2022/11/29 06:33:06;;;;;;;87.32;33.33;;;7.60;99.90;;;;;;4988560;28;20488;-77
2022/11/29 06:35:57;;;;;;;92.60;35.25;;;7.60;99.90;;;;;;5007172;28;20049;-76
2022/11/29 06:38:28;;;;;;;73.45;31.50;;;7.60;99.90;;;;;;4987445;28;20053;-76
2022/11/29 06:40:56;;;;;;;99.28;35.72;;;7.60;99.90;;;;;;4992084;28;20097;-76
2022/11/29 06:43:24;;;;;;;82.00;32.35;;;7.60;99.90;;;;;;4992166;28;20056;-76
2022/11/29 06:46:15;;;;;;;77.05;31.80;;;7.60;99.90;;;;;;4990995;28;20060;-76
2022/11/29 06:49:10;;;;;;;80.20;32.63;;;7.60;99.90;;;;;;4983901;28;20041;-77
2022/11/29 06:52:06;;;;;;;88.13;34.65;;;7.60;99.90;;;;;;4962234;28;20054;-76
2022/11/29 06:54:43;;;;;;;68.38;32.10;;;7.60;99.90;;;;;;4975308;28;20137;-77
2022/11/29 06:57:47;;;;;;;93.10;36.90;;;7.60;99.90;;;;;;4987268;28;20181;-76
2022/11/29 07:00:46;;;;;;;84.00;33.67;;;7.50;99.90;;;;;;4991224;28;20296;-76
2022/11/29 07:03:27;;;;;;;75.63;31.25;;;7.50;99.90;;;;;;4987317;28;20173;-77
2022/11/29 07:05:53;;;;;;;88.22;32.08;;;7.60;99.90;;;;;;4988926;28;20050;-78
2022/11/29 07:08:21;;;;;;;74.35;31.58;;;7.60;99.90;;;;;;4990684;28;20099;-77
2022/11/29 07:10:49;;;;;;;;;;;7.50;99.90;;;;;;4992071;28;20046;-77
2022/11/29 07:13:17;;;;;;;82.30;31.13;;;7.50;99.90;;;;;;4992471;28;20012;-76
2022/11/29 07:16:18;;;;;;;113.20;35.17;;;7.50;99.90;;;;;;4987088;28;20056;-77
2022/11/29 07:19:06;;;;;;;72.40;30.75;;;7.50;99.90;;;;;;4974035;28;20064;-77
2022/11/29 07:21:44;;;;;;;69.45;29.95;;;7.50;99.90;;;;;;4998086;28;20068;-76
2022/11/29 07:24:44;;;;;;;83.38;31.23;;;7.50;99.90;;;;;;4978491;28;20121;-76
2022/11/29 07:27:29;;;;;;;97.88;32.03;;;7.50;99.90;;;;;;4991252;28;20041;-76
2022/11/29 07:30:00;;;;;;;71.65;30.90;;;7.50;99.90;;;;;;4991110;28;20058;-77
2022/11/29 07:33:02;;;;;;;73.50;30.85;;;7.50;99.90;;;;;;4985557;28;20053;-77
2022/11/29 07:35:37;;;;;;;69.78;30.63;;;7.50;99.90;;;;;;4988198;28;20546;-77
2022/11/29 07:38:20;;;;;;;73.50;31.50;;;7.50;99.90;;;;;;4987137;28;20048;-77
2022/11/29 07:41:09;;;;;;;76.55;31.13;;;7.50;99.90;;;;;;4987796;28;20129;-77
2022/11/29 07:43:47;;;;;;;95.97;35.40;;;7.50;99.90;;;;;;4990405;28;20057;-77
2022/11/29 07:46:13;;;;;;;101.50;37.10;;;7.50;99.90;;;;;;5004360;28;20054;-77
2022/11/29 07:48:38;;;;;;;87.55;35.17;;;7.50;99.90;;;;;;4986863;28;20155;-77
2022/11/29 07:51:04;;;;;;;87.40;34.55;;;7.50;99.90;;;;;;4984357;28;20064;-78
2022/11/29 07:53:30;;;;;;;80.97;33.97;;;7.50;99.90;;;;;;4986101;28;20053;-77
2022/11/29 07:55:57;;;;;;;103.35;35.55;;;7.50;99.90;;;;;;5000174;28;20286;-77
2022/11/29 07:58:23;;;;;;;105.63;38.17;;;7.50;99.90;;;;;;4990773;28;20792;-78
2022/11/29 08:00:48;;;;;;;88.20;32.17;;;7.50;99.90;;;;;;4989176;28;20084;-77
2022/11/29 08:03:14;;;;;;;103.65;36.15;;;7.50;99.90;;;;;;4990951;28;20491;-75
2022/11/29 08:05:45;;;;;;;88.05;34.70;;;7.50;99.90;;;;;;4989679;28;20381;-77
2022/11/29 08:08:10;;;;;;;79.35;33.70;;;7.50;99.90;;;;;;4988590;28;20057;-76
2022/11/29 08:10:37;;;;;;;87.70;35.40;;;7.50;99.90;;;;;;4990350;28;20053;-76
2022/11/29 08:13:03;;;;;;;72.78;32.42;;;7.50;99.90;;;;;;4985118;28;20089;-77
2022/11/29 08:15:28;;;;;;;91.97;36.20;;;7.50;99.90;;;;;;4984459;28;20535;-76
2022/11/29 08:17:54;;;;;;;98.88;36.50;;;7.50;99.90;;;;;;4988602;28;20045;-77
2022/11/29 08:20:20;;;;;;;130.98;39.63;;;7.60;99.90;;;;;;4988559;28;20129;-76
2022/11/29 08:22:56;;;;;;;88.45;34.20;;;7.60;99.90;;;;;;4982083;28;20054;-76
2022/11/29 08:25:22;;;;;;;77.45;34.78;;;7.60;99.90;;;;;;4988730;28;20042;-77
2022/11/29 08:27:49;;;;;;;118.07;38.90;;;7.60;99.90;;;;;;4990125;28;20048;-75
2022/11/29 08:30:17;;;;;;;101.18;34.67;;;7.60;99.90;;;;;;4991559;28;20048;-76
2022/11/29 08:32:43;;;;;;;;;;;7.60;99.90;;;;;;4976502;28;20046;-77
2022/11/29 08:35:09;;;;;;;96.15;34.75;;;7.60;99.90;;;;;;4992576;28;19928;-76
2022/11/29 08:37:36;;;;;;;85.30;32.83;;;7.60;99.90;;;;;;4993588;28;20046;-76
2022/11/29 08:40:03;;;;;;;86.80;34.35;;;7.60;99.90;;;;;;4993232;28;20050;-76
2022/11/29 08:42:29;;;;;;;98.73;35.60;;;7.60;99.90;;;;;;4993713;28;20515;-76
2022/11/29 08:44:54;;;;;;;81.22;33.17;;;7.60;99.90;;;;;;4987568;28;20038;-77
2022/11/29 08:47:35;;;;;;;79.43;33.05;;;7.60;99.90;;;;;;4989168;28;20077;-76
2022/11/29 08:50:08;;;;;;;84.55;34.53;;;7.60;99.90;;;;;;4985210;28;20141;-77
2022/11/29 08:55:25;;;;;;;87.40;34.97;;;7.70;99.90;;;;;;4999570;28;20112;-77
2022/11/29 08:57:51;;;;;;;87.53;32.40;;;7.70;99.90;;;;;;4998128;28;20400;-77
2022/11/29 09:00:20;;;;;;;82.60;32.58;;;7.70;99.90;;;;;;4993308;28;20492;-77
2022/11/29 09:02:45;;;;;;;;;;;7.70;99.90;;;;;;4987344;28;20120;-77
2022/11/29 09:05:11;;;;;;;64.88;27.80;;;7.60;99.90;;;;;;4993463;28;20389;-77
2022/11/29 09:07:37;;;;;;;65.07;29.23;;;7.70;99.90;;;;;;4993444;28;20061;-77
2022/11/29 09:10:07;;;;;;;64.60;29.55;;;7.70;99.90;;;;;;4989552;28;20037;-76
2022/11/29 09:12:34;;;;;;;65.53;28.63;;;7.70;99.90;;;;;;4987230;28;20046;-76
2022/11/29 09:15:00;;;;;;;72.28;29.63;;;7.70;99.90;;;;;;4989897;28;20054;-76
2022/11/29 09:17:26;;;;;;;78.82;28.80;;;7.80;99.90;;;;;;4989436;28;20046;-76
2022/11/29 09:19:51;;;;;;;80.80;30.92;;;7.80;99.90;;;;;;4992915;28;20046;-76
2022/11/29 09:22:17;;;;;;;73.20;30.83;;;7.80;99.90;;;;;;4990876;28;20506;-76
2022/11/29 09:24:45;;;;;;;67.20;28.35;;;7.80;99.90;;;;;;4991546;28;20085;-76
2022/11/29 09:27:10;;;;;;;64.03;28.97;;;7.80;99.90;;;;;;4992845;28;20125;-76
2022/11/29 09:29:36;;;;;;;62.10;27.80;;;7.80;99.90;;;;;;4992428;28;20045;-76
2022/11/29 09:32:03;;;;;;;55.03;25.88;;;7.80;99.90;;;;;;4987349;28;20050;-76
2022/11/29 09:34:28;;;;;;;60.70;27.00;;;7.90;99.90;;;;;;4988715;28;20046;-77
2022/11/29 09:36:55;;;;;;;63.15;27.88;;;7.90;99.90;;;;;;4993107;28;20054;-75
2022/11/29 09:39:20;;;;;;;61.25;28.58;;;7.90;99.90;;;;;;4988510;28;20080;-76
2022/11/29 09:42:08;;;;;;;65.30;27.70;;;7.90;99.90;;;;;;4992324;28;20077;-76
2022/11/29 09:45:09;;;;;;;74.50;28.25;;;8.00;99.90;;;;;;4989366;28;20077;-76
2022/11/29 09:47:41;;;;;;;69.07;28.90;;;7.90;99.90;;;;;;4923545;28;20054;-76
2022/11/29 09:50:22;;;;;;;70.93;28.50;;;8.00;99.90;;;;;;4991644;28;20164;-77
2022/11/29 09:53:07;;;;;;;74.22;30.48;;;8.00;99.90;;;;;;4992583;28;20112;-78
2022/11/29 09:55:59;;;;;;;64.40;27.85;;;8.00;99.90;;;;;;4976780;28;20085;-78
2022/11/29 09:58:30;;;;;;;73.97;29.17;;;8.00;99.90;;;;;;4992046;28;20045;-78
2022/11/29 10:01:00;;;;;;;68.57;27.98;;;8.00;99.90;;;;;;4988080;28;20047;-79
2022/11/29 10:03:37;;;;;;;63.65;27.40;;;8.10;99.90;;;;;;4984748;28;20144;-79
2022/11/29 10:06:31;;;;;;;56.95;26.05;;;8.10;99.90;;;;;;4992853;28;20065;-76
2022/11/29 10:09:12;;;;;;;60.00;28.33;;;8.10;99.90;;;;;;4965074;28;20152;-76
2022/11/29 10:11:43;;;;;;;67.05;28.13;;;8.20;99.90;;;;;;4995942;28;20054;-79
2022/11/29 10:14:23;;;;;;;57.60;27.35;;;8.20;99.90;;;;;;4991695;28;20050;-80
2022/11/29 10:16:55;;;;;;;65.38;28.98;;;8.20;99.90;;;;;;4988490;28;20085;-76
2022/11/29 10:19:24;;;;;;;57.90;25.90;;;8.20;99.90;;;;;;4981971;28;20046;-79
2022/11/29 10:22:11;;;;;;;60.30;27.65;;;8.20;99.90;;;;;;4992148;28;20054;-79
2022/11/29 10:24:41;;;;;;;51.13;22.45;;;8.30;99.90;;;;;;4991179;28;20168;-80
2022/11/29 10:27:22;;;;;;;59.15;26.38;;;8.30;99.90;;;;;;4991074;28;20499;-79
2022/11/29 10:29:52;;;;;;;54.55;25.42;;;8.30;99.90;;;;;;4990283;28;20054;-79
2022/11/29 10:32:20;;;;;;;61.13;26.25;;;8.30;99.90;;;;;;4991536;28;20038;-79
2022/11/29 10:34:47;;;;;;;69.55;30.20;;;8.30;99.90;;;;;;5001345;28;20515;-80
2022/11/29 10:37:19;;;;;;;65.18;26.35;;;8.40;99.90;;;;;;4991715;28;20050;-80
2022/11/29 10:40:03;;;;;;;51.88;23.90;;;8.40;99.90;;;;;;4994155;28;20038;-80
2022/11/29 10:42:47;;;;;;;50.17;25.38;;;8.40;99.90;;;;;;4994999;28;20125;-80
2022/11/29 10:45:24;;;;;;;61.17;27.58;;;8.40;99.90;;;;;;4989206;28;20056;-79
2022/11/29 10:47:53;;;;;;;64.45;28.60;;;8.50;99.90;;;;;;4990474;28;20060;-80
2022/11/29 10:50:28;;;;;;;83.32;34.70;;;8.50;99.90;;;;;;4988961;28;20054;-79
2022/11/29 10:53:11;;;;;;;71.53;31.95;;;8.50;99.90;;;;;;5004212;28;20165;-79
2022/11/29 10:56:07;;;;;;;58.78;29.38;;;8.50;99.90;;;;;;4987910;28;20153;-79
2022/11/29 10:58:33;;;;;;;53.92;26.25;;;8.60;99.90;;;;;;4984786;28;20047;-79
2022/11/29 11:01:08;;;;;;;59.88;23.98;;;8.60;99.90;;;;;;4981540;28;20125;-79
2022/11/29 11:03:42;;;;;;;66.40;27.73;;;8.60;99.90;;;;;;4986354;28;20088;-79
2022/11/29 11:06:23;;;;;;;47.20;23.65;;;8.60;99.90;;;;;;4986308;28;20487;-79
2022/11/29 11:08:54;;;;;;;55.65;24.42;;;8.60;99.90;;;;;;4967366;28;20039;-79
2022/11/29 11:11:30;;;;;;;52.45;22.17;;;8.70;99.90;;;;;;4987828;28;20046;-80
2022/11/29 11:14:03;;;;;;;45.50;23.10;;;8.70;99.90;;;;;;4982011;28;20057;-77
2022/11/29 11:16:30;;;;;;;50.22;23.15;;;8.70;99.90;;;;;;4987995;28;20066;-78
2022/11/29 11:18:56;;;;;;;45.17;21.35;;;8.60;99.90;;;;;;4992497;28;20124;-78
2022/11/29 11:21:24;;;;;;;48.30;20.98;;;8.60;99.90;;;;;;4985764;28;20038;-78
2022/11/29 11:23:58;;;;;;;56.65;20.30;;;8.60;99.90;;;;;;4979669;28;20054;-78
2022/11/29 11:26:24;;;;;;;58.50;21.90;;;8.60;99.90;;;;;;4989170;28;20060;-77
2022/11/29 11:28:54;;;;;;;42.33;19.55;;;8.70;99.90;;;;;;4983801;28;20833;-77
2022/11/29 11:31:33;;;;;;;67.85;22.60;;;8.60;99.90;;;;;;4986338;28;20072;-77
2022/11/29 11:34:25;;;;;;;42.22;21.15;;;8.70;99.90;;;;;;4996295;28;20088;-77
2022/11/29 11:36:51;;;;;;;47.38;19.77;;;8.70;99.90;;;;;;4992961;28;20058;-77
2022/11/29 11:39:22;;;;;;;58.70;22.65;;;8.60;99.90;;;;;;4987058;28;20137;-76
2022/11/29 11:44:39;;;;;;;44.00;19.45;;;8.60;99.90;;;;;;4982893;28;20743;-77
2022/11/29 11:47:12;;;;;;;42.65;20.05;;;8.60;99.90;;;;;;4983034;28;20046;-76
2022/11/29 11:49:49;;;;;;;43.75;20.80;;;8.70;99.90;;;;;;4986873;28;20062;-77
2022/11/29 11:52:29;;;;;;;47.42;21.25;;;8.70;99.90;;;;;;4986483;28;20411;-77
2022/11/29 11:54:58;;;;;;;60.03;23.10;;;8.70;99.90;;;;;;4985152;28;20046;-77
2022/11/29 11:57:25;;;;;;;46.40;19.92;;;8.70;99.90;;;;;;5004027;28;20055;-76
2022/11/29 11:59:54;;;;;;;51.22;22.95;;;8.70;99.90;;;;;;4984404;28;20618;-77
2022/11/29 12:02:33;;;;;;;38.75;20.65;;;8.80;99.90;;;;;;4985263;28;20046;-78
2022/11/29 12:05:03;;;;;;;47.28;21.67;;;8.80;99.90;;;;;;4986330;28;20820;-77
2022/11/29 12:07:40;;;;;;;57.42;21.70;;;8.80;99.90;;;;;;4986877;28;20042;-77
2022/11/29 12:10:16;;;;;;;50.80;22.08;;;8.80;99.90;;;;;;4986245;28;20089;-76
2022/11/29 12:12:43;;;;;;;52.25;21.83;;;8.80;99.90;;;;;;4987624;28;20061;-75
2022/11/29 12:15:31;;;;;;;36.97;19.20;;;8.90;99.90;;;;;;4984876;28;20118;-76
2022/11/29 12:18:02;;;;;;;57.97;23.08;;;8.90;99.90;;;;;;4979991;28;20042;-76
2022/11/29 12:20:46;;;;;;;50.17;24.83;;;8.90;99.90;;;;;;4978022;28;20054;-76
2022/11/29 12:23:11;;;;;;;45.60;22.77;;;8.90;99.90;;;;;;4985341;28;20038;-75
2022/11/29 12:25:55;;;;;;;61.28;22.85;;;8.90;99.90;;;;;;4977637;28;20051;-75
2022/11/29 12:28:34;;;;;;;53.20;23.48;;;9.00;99.90;;;;;;4977164;28;20120;-76
2022/11/29 12:31:33;;;;;;;58.40;24.13;;;9.00;99.90;;;;;;4998896;28;20050;-75
2022/11/29 12:34:17;;;;;;;55.92;22.50;;;9.00;99.90;;;;;;4983295;28;20563;-76
2022/11/29 12:37:08;;;;;;;62.65;23.73;;;9.00;99.90;;;;;;4985139;28;20058;-76
2022/11/29 12:39:48;;;;;;;63.25;24.95;;;9.00;99.90;;;;;;4999624;28;20061;-76
2022/11/29 12:42:39;;;;;;;48.50;23.40;;;9.00;99.90;;;;;;4982760;28;20451;-76
2022/11/29 12:45:23;;;;;;;70.30;28.33;;;9.10;99.90;;;;;;4982001;28;20505;-75
2022/11/29 12:47:55;;;;;;;53.85;24.27;;;9.10;99.90;;;;;;4976903;28;20046;-75
2022/11/29 12:50:47;;;;;;;65.95;25.83;;;9.10;99.90;;;;;;4985999;28;20097;-75
2022/11/29 12:53:18;;;;;;;57.33;24.55;;;9.10;99.90;;;;;;4986456;28;20060;-76
2022/11/29 12:55:50;;;;;;;54.88;25.85;;;9.20;99.90;;;;;;4985256;28;20047;-76
2022/11/29 12:58:22;;;;;;;52.97;24.10;;;9.20;99.90;;;;;;4985440;28;20046;-76
2022/11/29 13:00:58;;;;;;;65.03;25.65;;;9.20;99.90;;;;;;4986426;28;20871;-76
2022/11/29 13:03:35;;;;;;;65.35;26.67;;;9.20;99.90;;;;;;4981125;28;20079;-76
2022/11/29 13:06:14;;;;;;;65.43;26.97;;;9.20;99.90;;;;;;4987428;28;20388;-76
2022/11/29 13:08:55;;;;;;;58.10;24.08;;;9.20;99.90;;;;;;4989934;28;20054;-76
2022/11/29 13:11:26;;;;;;;50.78;25.02;;;9.20;99.90;;;;;;4986856;28;20105;-76
2022/11/29 13:14:04;;;;;;;47.78;23.42;;;9.30;99.90;;;;;;4985419;28;20042;-75
2022/11/29 13:16:45;;;;;;;56.90;26.08;;;9.30;99.90;;;;;;4987104;28;20046;-76
2022/11/29 13:19:19;;;;;;;60.90;27.75;;;9.30;99.90;;;;;;4989813;28;20054;-76
2022/11/29 13:22:00;;;;;;;53.15;27.23;;;9.30;99.90;;;;;;4986820;28;20054;-76
2022/11/29 13:24:41;;;;;;;55.58;28.63;;;9.30;99.90;;;;;;4989777;28;20057;-76
2022/11/29 13:27:12;;;;;;;51.25;25.80;;;9.30;99.90;;;;;;4990282;28;20046;-77